Cosmos, Minnesota
Current Conditions -  °F | °C
As of 7:32 PM on Friday 28 Nov 2014 (Local Time) from KLJF Reporting Station
Scattered Clouds Scattered Clouds  
Wind Chill: 11°   Ceiling: Unl
Heat Index: 21°   Visibility: 10mi
Dew Point: 19°   Wind: 9mph
Humidity: 93%   Direction: 120°ESE
Pressure: 29.77"   Gusts: NA
Location:  44.94°N, 94.7°W
Report Text: KLJF 290132Z AUTO 12008KT 10SM SCT110 M06/M07 A2977 RMK AO2
Loading
Personal Weather Stations






























Interactive Weather Map New forecast layout! Learn more

10-Day Weather Forecast

Advertisements
Track Severe Weather on mobile